sensor_id;sensor_type;location;lat;lon;timestamp;pressure;altitude;pressure_sealevel;temperature;humidity
27052;BME280;14601;49.358;8.256;2022-08-25T00:00:29;100456.66;;;21.15;50.60
27052;BME280;14601;49.358;8.256;2022-08-25T00:03:33;100452.69;;;21.17;50.70
27052;BME280;14601;49.358;8.256;2022-08-25T00:06:36;100462.25;;;21.13;50.58
27052;BME280;14601;49.358;8.256;2022-08-25T00:09:38;100462.19;;;21.07;50.79
27052;BME280;14601;49.358;8.256;2022-08-25T00:12:40;100461.28;;;20.99;51.03
27052;BME280;14601;49.358;8.256;2022-08-25T00:15:42;100456.88;;;20.98;51.51
27052;BME280;14601;49.358;8.256;2022-08-25T00:18:49;100461.66;;;20.96;51.92
27052;BME280;14601;49.358;8.256;2022-08-25T00:21:51;100465.47;;;21.02;51.99
27052;BME280;14601;49.358;8.256;2022-08-25T00:24:53;100456.78;;;21.07;52.07
27052;BME280;14601;49.358;8.256;2022-08-25T00:27:55;100462.97;;;21.01;52.15
27052;BME280;14601;49.358;8.256;2022-08-25T00:30:58;100463.53;;;20.96;52.25
27052;BME280;14601;49.358;8.256;2022-08-25T00:34:03;100459.25;;;20.87;52.81
27052;BME280;14601;49.358;8.256;2022-08-25T00:37:07;100464.69;;;20.72;53.02
27052;BME280;14601;49.358;8.256;2022-08-25T00:40:10;100453.47;;;20.75;53.11
27052;BME280;14601;49.358;8.256;2022-08-25T00:43:12;100458.81;;;20.68;53.35
27052;BME280;14601;49.358;8.256;2022-08-25T00:46:16;100455.56;;;20.58;54.20
27052;BME280;14601;49.358;8.256;2022-08-25T00:49:24;100450.56;;;20.62;53.96
27052;BME280;14601;49.358;8.256;2022-08-25T00:52:29;100463.22;;;20.55;53.93
27052;BME280;14601;49.358;8.256;2022-08-25T00:55:32;100461.63;;;20.60;54.47
27052;BME280;14601;49.358;8.256;2022-08-25T00:58:35;100454.69;;;20.58;54.55
27052;BME280;14601;49.358;8.256;2022-08-25T01:01:37;100459.22;;;20.51;54.87
27052;BME280;14601;49.358;8.256;2022-08-25T01:04:41;100457.66;;;20.48;54.90
27052;BME280;14601;49.358;8.256;2022-08-25T01:07:44;100457.19;;;20.44;55.23
27052;BME280;14601;49.358;8.256;2022-08-25T01:10:47;100459.19;;;20.36;55.80
27052;BME280;14601;49.358;8.256;2022-08-25T01:13:53;100465.16;;;20.31;56.37
27052;BME280;14601;49.358;8.256;2022-08-25T01:16:55;100469.91;;;20.29;56.60
27052;BME280;14601;49.358;8.256;2022-08-25T01:20:00;100469.91;;;20.29;56.61
27052;BME280;14601;49.358;8.256;2022-08-25T01:23:03;100477.22;;;20.29;56.68
27052;BME280;14601;49.358;8.256;2022-08-25T01:26:09;100473.75;;;20.20;56.71
27052;BME280;14601;49.358;8.256;2022-08-25T01:29:11;100477.88;;;20.16;57.07
27052;BME280;14601;49.358;8.256;2022-08-25T01:32:24;100474.69;;;20.12;57.15
27052;BME280;14601;49.358;8.256;2022-08-25T01:35:26;100475.59;;;20.05;57.87
27052;BME280;14601;49.358;8.256;2022-08-25T01:38:29;100486.16;;;19.99;58.01
27052;BME280;14601;49.358;8.256;2022-08-25T01:41:49;100481.03;;;20.05;58.44
27052;BME280;14601;49.358;8.256;2022-08-25T01:44:54;100479.06;;;19.98;58.68
27052;BME280;14601;49.358;8.256;2022-08-25T01:47:57;100477.75;;;19.94;59.35
27052;BME280;14601;49.358;8.256;2022-08-25T01:50:58;100476.72;;;19.95;59.51
27052;BME280;14601;49.358;8.256;2022-08-25T01:54:02;100478.59;;;19.95;59.23
27052;BME280;14601;49.358;8.256;2022-08-25T01:57:04;100484.28;;;19.85;59.76
27052;BME280;14601;49.358;8.256;2022-08-25T02:00:08;100477.53;;;19.81;59.81
27052;BME280;14601;49.358;8.256;2022-08-25T02:03:12;100465.47;;;19.84;59.98
27052;BME280;14601;49.358;8.256;2022-08-25T02:06:16;100468.03;;;19.85;59.84
27052;BME280;14601;49.358;8.256;2022-08-25T02:09:20;100468.75;;;19.79;59.94
27052;BME280;14601;49.358;8.256;2022-08-25T02:12:22;100479.22;;;19.82;59.88
27052;BME280;14601;49.358;8.256;2022-08-25T02:15:26;100475.69;;;19.82;60.03
27052;BME280;14601;49.358;8.256;2022-08-25T02:18:28;100480.41;;;19.80;60.47
27052;BME280;14601;49.358;8.256;2022-08-25T02:21:30;100477.06;;;19.78;60.65
27052;BME280;14601;49.358;8.256;2022-08-25T02:24:33;100472.06;;;19.66;60.70
27052;BME280;14601;49.358;8.256;2022-08-25T02:27:35;100469.91;;;19.62;61.54
27052;BME280;14601;49.358;8.256;2022-08-25T02:30:39;100470.66;;;19.47;62.27
27052;BME280;14601;49.358;8.256;2022-08-25T02:33:42;100465.97;;;19.41;62.52
27052;BME280;14601;49.358;8.256;2022-08-25T02:36:43;100464.75;;;19.44;61.91
27052;BME280;14601;49.358;8.256;2022-08-25T02:39:47;100462.44;;;19.41;62.67
27052;BME280;14601;49.358;8.256;2022-08-25T02:42:49;100455.69;;;19.37;62.54
27052;BME280;14601;49.358;8.256;2022-08-25T02:45:52;100458.56;;;19.35;62.27
27052;BME280;14601;49.358;8.256;2022-08-25T02:48:54;100454.53;;;19.31;62.94
27052;BME280;14601;49.358;8.256;2022-08-25T02:51:56;100451.03;;;19.22;63.26
27052;BME280;14601;49.358;8.256;2022-08-25T02:55:01;100453.75;;;19.22;62.98
27052;BME280;14601;49.358;8.256;2022-08-25T02:58:04;100452.38;;;19.26;63.31
27052;BME280;14601;49.358;8.256;2022-08-25T03:01:07;100453.09;;;19.20;63.29
27052;BME280;14601;49.358;8.256;2022-08-25T03:04:11;100458.56;;;19.12;64.12
27052;BME280;14601;49.358;8.256;2022-08-25T03:07:13;100454.66;;;19.15;64.23
27052;BME280;14601;49.358;8.256;2022-08-25T03:10:18;100450.81;;;19.09;63.81
27052;BME280;14601;49.358;8.256;2022-08-25T03:13:20;100459.09;;;19.08;64.06
27052;BME280;14601;49.358;8.256;2022-08-25T03:16:22;100449.63;;;19.03;64.06
27052;BME280;14601;49.358;8.256;2022-08-25T03:19:24;100453.38;;;19.02;64.66
27052;BME280;14601;49.358;8.256;2022-08-25T03:22:26;100460.16;;;18.98;65.13
27052;BME280;14601;49.358;8.256;2022-08-25T03:25:30;100458.84;;;18.94;65.07
27052;BME280;14601;49.358;8.256;2022-08-25T03:28:49;100466.66;;;18.89;65.41
27052;BME280;14601;49.358;8.256;2022-08-25T03:31:51;100462.78;;;18.84;65.88
27052;BME280;14601;49.358;8.256;2022-08-25T03:34:54;100459.28;;;18.75;65.95
27052;BME280;14601;49.358;8.256;2022-08-25T03:37:56;100448.63;;;18.73;66.24
27052;BME280;14601;49.358;8.256;2022-08-25T03:41:00;100446.13;;;18.72;66.46
27052;BME280;14601;49.358;8.256;2022-08-25T03:44:03;100444.91;;;18.66;66.97
27052;BME280;14601;49.358;8.256;2022-08-25T03:47:06;100440.72;;;18.64;67.28
27052;BME280;14601;49.358;8.256;2022-08-25T03:50:09;100432.91;;;18.69;67.73
27052;BME280;14601;49.358;8.256;2022-08-25T03:53:11;100434.91;;;18.75;67.63
27052;BME280;14601;49.358;8.256;2022-08-25T03:56:14;100440.31;;;18.75;67.93
27052;BME280;14601;49.358;8.256;2022-08-25T03:59:16;100432.75;;;18.70;67.73
27052;BME280;14601;49.358;8.256;2022-08-25T04:02:18;100444.56;;;18.69;68.85
27052;BME280;14601;49.358;8.256;2022-08-25T04:05:20;100444.41;;;18.71;68.47
27052;BME280;14601;49.358;8.256;2022-08-25T04:08:22;100453.84;;;18.75;68.47
27052;BME280;14601;49.358;8.256;2022-08-25T04:11:26;100448.94;;;18.78;68.05
27052;BME280;14601;49.358;8.256;2022-08-25T04:14:28;100451.53;;;18.72;68.49
27052;BME280;14601;49.358;8.256;2022-08-25T04:17:30;100452.00;;;18.67;68.37
27052;BME280;14601;49.358;8.256;2022-08-25T04:20:32;100458.63;;;18.65;68.51
27052;BME280;14601;49.358;8.256;2022-08-25T04:23:35;100467.63;;;18.57;69.56
27052;BME280;14601;49.358;8.256;2022-08-25T04:26:40;100463.03;;;18.58;69.62
27052;BME280;14601;49.358;8.256;2022-08-25T04:29:42;100463.19;;;18.64;69.19
27052;BME280;14601;49.358;8.256;2022-08-25T04:32:44;100474.56;;;18.60;69.32
27052;BME280;14601;49.358;8.256;2022-08-25T04:35:48;100465.44;;;18.52;69.40
27052;BME280;14601;49.358;8.256;2022-08-25T04:38:50;100471.19;;;18.49;69.18
27052;BME280;14601;49.358;8.256;2022-08-25T04:41:53;100461.94;;;18.44;68.93
27052;BME280;14601;49.358;8.256;2022-08-25T04:44:55;100465.78;;;18.49;69.86
27052;BME280;14601;49.358;8.256;2022-08-25T04:47:57;100463.25;;;18.48;69.54
27052;BME280;14601;49.358;8.256;2022-08-25T04:51:03;100457.84;;;18.48;70.31
27052;BME280;14601;49.358;8.256;2022-08-25T04:54:08;100462.88;;;18.51;69.82
27052;BME280;14601;49.358;8.256;2022-08-25T04:57:12;100457.97;;;18.54;69.47
27052;BME280;14601;49.358;8.256;2022-08-25T05:00:15;100459.47;;;18.65;69.21
27052;BME280;14601;49.358;8.256;2022-08-25T05:03:17;100454.41;;;18.62;69.87
27052;BME280;14601;49.358;8.256;2022-08-25T05:06:19;100446.78;;;18.66;69.82
27052;BME280;14601;49.358;8.256;2022-08-25T05:09:21;100453.31;;;18.80;69.21
27052;BME280;14601;49.358;8.256;2022-08-25T05:12:24;100450.50;;;18.73;69.59
27052;BME280;14601;49.358;8.256;2022-08-25T05:15:26;100447.25;;;18.77;69.49
27052;BME280;14601;49.358;8.256;2022-08-25T05:18:45;100449.69;;;18.95;69.06
27052;BME280;14601;49.358;8.256;2022-08-25T05:21:47;100448.72;;;18.88;69.38
27052;BME280;14601;49.358;8.256;2022-08-25T05:24:49;100439.25;;;18.92;69.25
27052;BME280;14601;49.358;8.256;2022-08-25T05:27:52;100439.19;;;19.00;68.99
27052;BME280;14601;49.358;8.256;2022-08-25T05:30:57;100451.28;;;19.13;68.58
27052;BME280;14601;49.358;8.256;2022-08-25T05:33:59;100445.69;;;19.14;68.32
27052;BME280;14601;49.358;8.256;2022-08-25T05:37:01;100449.66;;;19.26;67.66
27052;BME280;14601;49.358;8.256;2022-08-25T05:40:04;100457.91;;;19.33;67.76
27052;BME280;14601;49.358;8.256;2022-08-25T05:43:09;100463.97;;;19.35;67.58
27052;BME280;14601;49.358;8.256;2022-08-25T05:46:12;100445.03;;;19.35;67.81
27052;BME280;14601;49.358;8.256;2022-08-25T05:49:14;100439.13;;;19.55;66.89
27052;BME280;14601;49.358;8.256;2022-08-25T05:52:16;100438.88;;;19.64;66.26
27052;BME280;14601;49.358;8.256;2022-08-25T05:55:18;100434.06;;;19.74;65.50
27052;BME280;14601;49.358;8.256;2022-08-25T05:58:22;100428.19;;;19.86;65.45
27052;BME280;14601;49.358;8.256;2022-08-25T06:01:26;100426.88;;;19.96;64.91
27052;BME280;14601;49.358;8.256;2022-08-25T06:04:46;100427.09;;;20.10;64.42
27052;BME280;14601;49.358;8.256;2022-08-25T06:07:50;100430.72;;;20.17;64.31
27052;BME280;14601;49.358;8.256;2022-08-25T06:10:52;100427.81;;;20.33;63.56
27052;BME280;14601;49.358;8.256;2022-08-25T06:13:55;100421.38;;;20.49;63.01
27052;BME280;14601;49.358;8.256;2022-08-25T06:16:58;100422.41;;;20.63;62.82
27052;BME280;14601;49.358;8.256;2022-08-25T06:20:00;100430.44;;;20.71;62.55
27052;BME280;14601;49.358;8.256;2022-08-25T06:23:03;100428.47;;;20.80;62.39
27052;BME280;14601;49.358;8.256;2022-08-25T06:26:05;100425.72;;;20.94;62.02
27052;BME280;14601;49.358;8.256;2022-08-25T06:29:08;100427.84;;;20.99;62.05
27052;BME280;14601;49.358;8.256;2022-08-25T06:32:10;100428.91;;;21.19;61.57
27052;BME280;14601;49.358;8.256;2022-08-25T06:35:14;100432.41;;;21.35;60.63
27052;BME280;14601;49.358;8.256;2022-08-25T06:38:16;100433.28;;;21.35;60.54
27052;BME280;14601;49.358;8.256;2022-08-25T06:41:18;100416.63;;;21.45;60.42
27052;BME280;14601;49.358;8.256;2022-08-25T06:44:23;100423.66;;;21.61;59.89
27052;BME280;14601;49.358;8.256;2022-08-25T06:47:26;100421.84;;;21.68;59.97
27052;BME280;14601;49.358;8.256;2022-08-25T06:50:28;100415.22;;;21.77;59.76
27052;BME280;14601;49.358;8.256;2022-08-25T06:53:30;100416.97;;;21.91;59.61
27052;BME280;14601;49.358;8.256;2022-08-25T06:56:32;100412.94;;;22.09;59.01
27052;BME280;14601;49.358;8.256;2022-08-25T06:59:36;100415.19;;;22.33;58.34
27052;BME280;14601;49.358;8.256;2022-08-25T07:02:38;100417.34;;;22.44;58.00
27052;BME280;14601;49.358;8.256;2022-08-25T07:05:40;100412.41;;;22.61;57.31
27052;BME280;14601;49.358;8.256;2022-08-25T07:08:43;100411.94;;;22.58;57.70
27052;BME280;14601;49.358;8.256;2022-08-25T07:11:45;100404.28;;;22.88;56.89
27052;BME280;14601;49.358;8.256;2022-08-25T07:14:48;100409.19;;;22.99;56.57
27052;BME280;14601;49.358;8.256;2022-08-25T07:17:50;100413.81;;;23.05;56.53
27052;BME280;14601;49.358;8.256;2022-08-25T07:20:52;100395.81;;;23.44;55.83
27052;BME280;14601;49.358;8.256;2022-08-25T07:23:56;100400.66;;;23.62;55.20
27052;BME280;14601;49.358;8.256;2022-08-25T07:26:59;100399.66;;;27.40;45.62
27052;BME280;14601;49.358;8.256;2022-08-25T07:30:04;100382.97;;;33.00;34.15
27052;BME280;14601;49.358;8.256;2022-08-25T07:33:06;100388.19;;;35.67;28.74
27052;BME280;14601;49.358;8.256;2022-08-25T07:36:08;100382.53;;;37.95;25.54
27052;BME280;14601;49.358;8.256;2022-08-25T07:39:09;100372.16;;;38.65;24.34
27052;BME280;14601;49.358;8.256;2022-08-25T07:42:11;100374.09;;;39.28;23.29
27052;BME280;14601;49.358;8.256;2022-08-25T07:45:16;100368.97;;;40.63;21.75
27052;BME280;14601;49.358;8.256;2022-08-25T07:48:19;100379.22;;;41.55;20.74
27052;BME280;14601;49.358;8.256;2022-08-25T07:51:21;100377.59;;;40.84;21.61
27052;BME280;14601;49.358;8.256;2022-08-25T07:54:23;100371.50;;;41.17;21.37
27052;BME280;14601;49.358;8.256;2022-08-25T07:57:26;100377.84;;;40.08;22.51
27052;BME280;14601;49.358;8.256;2022-08-25T08:00:31;100376.72;;;41.62;21.01
27052;BME280;14601;49.358;8.256;2022-08-25T08:03:33;100382.72;;;43.29;19.15
27052;BME280;14601;49.358;8.256;2022-08-25T08:06:35;100386.84;;;42.39;19.82
27052;BME280;14601;49.358;8.256;2022-08-25T08:09:37;100385.16;;;43.31;18.73
27052;BME280;14601;49.358;8.256;2022-08-25T08:12:40;100377.19;;;41.64;20.52
27052;BME280;14601;49.358;8.256;2022-08-25T08:15:43;100379.91;;;41.17;21.30
27052;BME280;14601;49.358;8.256;2022-08-25T08:18:46;100387.59;;;40.11;22.04
27052;BME280;14601;49.358;8.256;2022-08-25T08:21:48;100384.25;;;39.69;22.65
27052;BME280;14601;49.358;8.256;2022-08-25T08:24:50;100386.41;;;38.77;23.54
27052;BME280;14601;49.358;8.256;2022-08-25T08:27:52;100384.28;;;41.70;20.79
27052;BME280;14601;49.358;8.256;2022-08-25T08:30:56;100382.44;;;40.52;21.90
27052;BME280;14601;49.358;8.256;2022-08-25T08:33:58;100383.84;;;40.90;21.54
27052;BME280;14601;49.358;8.256;2022-08-25T08:37:01;100384.91;;;41.84;20.31
27052;BME280;14601;49.358;8.256;2022-08-25T08:40:04;100381.91;;;41.16;21.04
27052;BME280;14601;49.358;8.256;2022-08-25T08:43:11;100381.28;;;39.43;22.84
27052;BME280;14601;49.358;8.256;2022-08-25T08:46:17;100380.78;;;39.04;23.92
27052;BME280;14601;49.358;8.256;2022-08-25T08:49:26;100371.16;;;39.33;23.12
27052;BME280;14601;49.358;8.256;2022-08-25T08:52:45;100377.09;;;38.95;24.13
27052;BME280;14601;49.358;8.256;2022-08-25T08:55:52;100370.41;;;37.40;25.77
27052;BME280;14601;49.358;8.256;2022-08-25T08:58:58;100361.84;;;36.36;27.36
27052;BME280;14601;49.358;8.256;2022-08-25T09:02:03;100360.00;;;38.47;24.76
27052;BME280;14601;49.358;8.256;2022-08-25T09:05:07;100364.16;;;37.29;26.28
27052;BME280;14601;49.358;8.256;2022-08-25T09:08:13;100358.06;;;36.51;27.70
27052;BME280;14601;49.358;8.256;2022-08-25T09:11:22;100368.13;;;38.71;25.08
27052;BME280;14601;49.358;8.256;2022-08-25T09:14:39;100359.47;;;39.31;24.13
27052;BME280;14601;49.358;8.256;2022-08-25T09:18:00;100355.22;;;37.78;25.43
27052;BME280;14601;49.358;8.256;2022-08-25T09:21:12;100352.97;;;36.34;28.23
27052;BME280;14601;49.358;8.256;2022-08-25T09:24:27;100350.66;;;37.69;26.50
27052;BME280;14601;49.358;8.256;2022-08-25T09:27:40;100341.81;;;37.80;25.50
27052;BME280;14601;49.358;8.256;2022-08-25T09:30:52;100340.28;;;35.46;28.56
27052;BME280;14601;49.358;8.256;2022-08-25T09:33:59;100334.69;;;38.43;24.65
27052;BME280;14601;49.358;8.256;2022-08-25T09:37:01;100322.19;;;40.07;23.24
27052;BME280;14601;49.358;8.256;2022-08-25T09:40:04;100331.06;;;37.88;25.93
27052;BME280;14601;49.358;8.256;2022-08-25T09:43:17;100323.75;;;39.05;24.45
27052;BME280;14601;49.358;8.256;2022-08-25T09:46:24;100313.81;;;37.06;26.68
27052;BME280;14601;49.358;8.256;2022-08-25T09:49:37;100308.53;;;39.65;23.43
27052;BME280;14601;49.358;8.256;2022-08-25T09:52:41;100303.75;;;39.66;23.39
27052;BME280;14601;49.358;8.256;2022-08-25T09:55:45;100306.00;;;36.89;26.67
27052;BME280;14601;49.358;8.256;2022-08-25T09:58:53;100298.56;;;36.85;26.52
27052;BME280;14601;49.358;8.256;2022-08-25T10:01:58;100296.22;;;36.73;26.48
27052;BME280;14601;49.358;8.256;2022-08-25T10:05:17;100295.31;;;37.16;25.95
27052;BME280;14601;49.358;8.256;2022-08-25T10:08:27;100284.81;;;36.94;26.33
27052;BME280;14601;49.358;8.256;2022-08-25T10:11:35;100298.78;;;33.72;31.23
27052;BME280;14601;49.358;8.256;2022-08-25T10:14:37;100284.41;;;34.35;30.73
27052;BME280;14601;49.358;8.256;2022-08-25T10:17:40;100287.44;;;36.66;26.89
27052;BME280;14601;49.358;8.256;2022-08-25T10:20:52;100280.31;;;33.11;31.57
27052;BME280;14601;49.358;8.256;2022-08-25T10:24:01;100279.47;;;33.31;31.51
27052;BME280;14601;49.358;8.256;2022-08-25T10:27:12;100278.69;;;31.59;35.13
27052;BME280;14601;49.358;8.256;2022-08-25T10:30:19;100279.25;;;31.61;35.00
27052;BME280;14601;49.358;8.256;2022-08-25T10:33:28;100282.50;;;30.84;36.42
27052;BME280;14601;49.358;8.256;2022-08-25T10:36:44;100274.63;;;31.30;35.77
27052;BME280;14601;49.358;8.256;2022-08-25T10:39:59;100274.41;;;31.04;36.19
27052;BME280;14601;49.358;8.256;2022-08-25T10:43:05;100257.41;;;31.17;35.37
27052;BME280;14601;49.358;8.256;2022-08-25T10:46:14;100258.41;;;31.43;35.03
27052;BME280;14601;49.358;8.256;2022-08-25T10:49:18;100260.19;;;31.22;35.18
27052;BME280;14601;49.358;8.256;2022-08-25T10:52:28;100258.06;;;30.97;35.61
27052;BME280;14601;49.358;8.256;2022-08-25T10:55:37;100256.28;;;30.27;36.23
27052;BME280;14601;49.358;8.256;2022-08-25T10:58:57;100247.03;;;30.70;35.71
27052;BME280;14601;49.358;8.256;2022-08-25T11:05:33;100242.59;;;30.64;35.92
27052;BME280;14601;49.358;8.256;2022-08-25T11:08:43;100236.63;;;30.01;37.35
27052;BME280;14601;49.358;8.256;2022-08-25T11:11:52;100227.38;;;30.89;35.77
27052;BME280;14601;49.358;8.256;2022-08-25T11:14:59;100226.59;;;31.31;34.75
27052;BME280;14601;49.358;8.256;2022-08-25T11:18:06;100217.69;;;31.23;34.82
27052;BME280;14601;49.358;8.256;2022-08-25T11:21:13;100217.69;;;31.61;34.21
27052;BME280;14601;49.358;8.256;2022-08-25T11:24:35;100212.59;;;31.42;34.50
27052;BME280;14601;49.358;8.256;2022-08-25T11:27:44;100207.88;;;31.00;35.56
27052;BME280;14601;49.358;8.256;2022-08-25T11:30:48;100214.00;;;31.45;34.45
27052;BME280;14601;49.358;8.256;2022-08-25T11:33:52;100215.84;;;30.92;34.40
27052;BME280;14601;49.358;8.256;2022-08-25T11:36:57;100215.75;;;30.27;35.24
27052;BME280;14601;49.358;8.256;2022-08-25T11:40:20;100210.19;;;30.76;34.98
27052;BME280;14601;49.358;8.256;2022-08-25T11:43:42;100206.19;;;30.35;35.73
27052;BME280;14601;49.358;8.256;2022-08-25T11:47:04;100193.16;;;30.03;36.13
27052;BME280;14601;49.358;8.256;2022-08-25T11:50:25;100193.47;;;30.61;34.41
27052;BME280;14601;49.358;8.256;2022-08-25T11:53:29;100193.69;;;30.87;34.07
27052;BME280;14601;49.358;8.256;2022-08-25T11:56:35;100184.94;;;30.31;35.67
27052;BME280;14601;49.358;8.256;2022-08-25T12:00:03;100185.25;;;30.98;35.14
27052;BME280;14601;49.358;8.256;2022-08-25T12:07:18;100177.09;;;31.19;34.57
27052;BME280;14601;49.358;8.256;2022-08-25T12:10:22;100182.91;;;31.22;34.74
27052;BME280;14601;49.358;8.256;2022-08-25T12:13:41;100164.69;;;31.21;34.39
27052;BME280;14601;49.358;8.256;2022-08-25T12:16:59;100167.03;;;30.97;34.81
27052;BME280;14601;49.358;8.256;2022-08-25T12:20:06;100158.88;;;31.70;33.47
27052;BME280;14601;49.358;8.256;2022-08-25T12:23:08;100160.41;;;32.24;32.55
27052;BME280;14601;49.358;8.256;2022-08-25T12:26:18;100166.84;;;32.55;30.19
27052;BME280;14601;49.358;8.256;2022-08-25T12:29:32;100156.88;;;32.39;31.01
27052;BME280;14601;49.358;8.256;2022-08-25T12:32:58;100158.81;;;32.64;31.29
27052;BME280;14601;49.358;8.256;2022-08-25T12:36:04;100154.34;;;32.27;31.33
27052;BME280;14601;49.358;8.256;2022-08-25T12:39:07;100156.59;;;32.86;30.97
27052;BME280;14601;49.358;8.256;2022-08-25T12:42:22;100160.41;;;32.14;31.98
27052;BME280;14601;49.358;8.256;2022-08-25T12:45:36;100157.34;;;32.00;32.31
27052;BME280;14601;49.358;8.256;2022-08-25T12:49:09;100153.94;;;31.83;32.06
27052;BME280;14601;49.358;8.256;2022-08-25T12:52:15;100156.44;;;31.26;33.34
27052;BME280;14601;49.358;8.256;2022-08-25T12:55:19;100151.22;;;31.88;32.43
27052;BME280;14601;49.358;8.256;2022-08-25T12:58:23;100141.03;;;31.98;32.17
27052;BME280;14601;49.358;8.256;2022-08-25T13:01:39;100154.13;;;32.44;31.56
27052;BME280;14601;49.358;8.256;2022-08-25T13:05:04;100135.84;;;32.38;31.64
27052;BME280;14601;49.358;8.256;2022-08-25T13:08:28;100147.16;;;32.11;32.14
27052;BME280;14601;49.358;8.256;2022-08-25T13:11:39;100137.78;;;32.22;32.35
27052;BME280;14601;49.358;8.256;2022-08-25T13:14:43;100133.88;;;32.08;32.35
27052;BME280;14601;49.358;8.256;2022-08-25T13:17:47;100127.31;;;31.46;32.98
27052;BME280;14601;49.358;8.256;2022-08-25T13:20:52;100127.19;;;31.25;32.83
27052;BME280;14601;49.358;8.256;2022-08-25T13:23:57;100120.94;;;30.93;32.93
27052;BME280;14601;49.358;8.256;2022-08-25T13:27:00;100123.06;;;30.81;32.98
27052;BME280;14601;49.358;8.256;2022-08-25T13:30:03;100118.34;;;30.76;33.62
27052;BME280;14601;49.358;8.256;2022-08-25T13:33:18;100109.69;;;31.05;32.59
27052;BME280;14601;49.358;8.256;2022-08-25T13:36:23;100110.50;;;31.00;32.98
27052;BME280;14601;49.358;8.256;2022-08-25T13:39:42;100106.31;;;30.92;33.22
27052;BME280;14601;49.358;8.256;2022-08-25T13:42:46;100098.78;;;30.77;33.46
27052;BME280;14601;49.358;8.256;2022-08-25T13:45:48;100097.38;;;31.27;32.77
27052;BME280;14601;49.358;8.256;2022-08-25T13:49:01;100088.97;;;31.49;32.25
27052;BME280;14601;49.358;8.256;2022-08-25T13:52:04;100090.84;;;31.39;32.79
27052;BME280;14601;49.358;8.256;2022-08-25T13:55:07;100097.22;;;30.92;33.01
27052;BME280;14601;49.358;8.256;2022-08-25T13:58:13;100089.38;;;30.78;33.33
27052;BME280;14601;49.358;8.256;2022-08-25T14:01:19;100091.09;;;30.85;33.14
27052;BME280;14601;49.358;8.256;2022-08-25T14:04:29;100083.00;;;31.20;32.44
27052;BME280;14601;49.358;8.256;2022-08-25T14:07:32;100085.06;;;31.45;31.81
27052;BME280;14601;49.358;8.256;2022-08-25T14:10:38;100080.28;;;32.14;30.98
27052;BME280;14601;49.358;8.256;2022-08-25T14:13:42;100084.13;;;32.38;30.54
27052;BME280;14601;49.358;8.256;2022-08-25T14:16:47;100079.19;;;32.51;30.11
27052;BME280;14601;49.358;8.256;2022-08-25T14:19:51;100078.59;;;32.08;30.83
27052;BME280;14601;49.358;8.256;2022-08-25T14:22:55;100066.47;;;32.39;30.66
27052;BME280;14601;49.358;8.256;2022-08-25T14:25:58;100062.25;;;32.88;29.57
27052;BME280;14601;49.358;8.256;2022-08-25T14:29:00;100056.63;;;33.13;28.89
27052;BME280;14601;49.358;8.256;2022-08-25T14:32:02;100065.72;;;33.34;29.44
27052;BME280;14601;49.358;8.256;2022-08-25T14:35:07;100051.03;;;33.29;29.42
27052;BME280;14601;49.358;8.256;2022-08-25T14:38:09;100053.94;;;32.93;29.49
27052;BME280;14601;49.358;8.256;2022-08-25T14:41:12;100054.84;;;32.27;29.99
27052;BME280;14601;49.358;8.256;2022-08-25T14:44:14;100045.72;;;32.21;30.06
27052;BME280;14601;49.358;8.256;2022-08-25T14:47:16;100048.19;;;32.08;30.50
27052;BME280;14601;49.358;8.256;2022-08-25T14:50:21;100039.84;;;31.57;31.27
27052;BME280;14601;49.358;8.256;2022-08-25T14:53:23;100051.34;;;31.33;31.71
27052;BME280;14601;49.358;8.256;2022-08-25T14:56:25;100041.53;;;31.73;31.39
27052;BME280;14601;49.358;8.256;2022-08-25T14:59:27;100033.44;;;31.51;31.24
27052;BME280;14601;49.358;8.256;2022-08-25T15:02:30;100032.88;;;31.39;31.37
27052;BME280;14601;49.358;8.256;2022-08-25T15:05:34;100029.00;;;31.35;31.45
27052;BME280;14601;49.358;8.256;2022-08-25T15:08:36;100026.72;;;31.26;31.46
27052;BME280;14601;49.358;8.256;2022-08-25T15:11:55;100025.44;;;31.49;31.16
27052;BME280;14601;49.358;8.256;2022-08-25T15:14:58;100025.47;;;31.60;30.97
27052;BME280;14601;49.358;8.256;2022-08-25T15:18:01;100020.50;;;31.62;31.14
27052;BME280;14601;49.358;8.256;2022-08-25T15:21:04;100012.53;;;31.81;31.01
27052;BME280;14601;49.358;8.256;2022-08-25T15:24:08;100002.47;;;31.28;31.38
27052;BME280;14601;49.358;8.256;2022-08-25T15:27:11;100010.00;;;31.48;31.51
27052;BME280;14601;49.358;8.256;2022-08-25T15:30:15;100010.78;;;31.39;31.42
27052;BME280;14601;49.358;8.256;2022-08-25T15:33:17;100005.25;;;31.39;31.25
27052;BME280;14601;49.358;8.256;2022-08-25T15:36:23;100003.81;;;31.16;31.49
27052;BME280;14601;49.358;8.256;2022-08-25T15:39:26;100001.84;;;31.11;31.69
27052;BME280;14601;49.358;8.256;2022-08-25T15:42:28;99998.22;;;31.00;31.69
27052;BME280;14601;49.358;8.256;2022-08-25T15:45:30;99994.66;;;31.10;31.54
27052;BME280;14601;49.358;8.256;2022-08-25T15:48:35;99990.84;;;31.21;31.43
27052;BME280;14601;49.358;8.256;2022-08-25T15:51:38;99989.72;;;31.12;31.30
27052;BME280;14601;49.358;8.256;2022-08-25T15:54:41;99989.59;;;30.87;31.62
27052;BME280;14601;49.358;8.256;2022-08-25T15:57:43;99982.44;;;30.86;31.60
27052;BME280;14601;49.358;8.256;2022-08-25T16:00:46;99991.78;;;30.80;31.36
27052;BME280;14601;49.358;8.256;2022-08-25T16:03:48;99994.56;;;30.85;31.29
27052;BME280;14601;49.358;8.256;2022-08-25T16:06:52;99992.41;;;30.92;31.73
27052;BME280;14601;49.358;8.256;2022-08-25T16:09:54;99980.41;;;30.71;31.74
27052;BME280;14601;49.358;8.256;2022-08-25T16:12:56;99986.59;;;30.93;31.57
27052;BME280;14601;49.358;8.256;2022-08-25T16:15:58;99989.03;;;30.80;31.34